Time,TemperatureF,DewpointF,PressureIn,WindDirection,WindDirectionDegrees,WindSpeedMPH,WindSpeedGustMPH,Humidity,HourlyPrecipIn,Conditions,Clouds,dailyrainin,SoftwareType,DateUTC
2013-08-06 00:05:00,53.4,52.6,29.99,SW,225,3.0,10.0,97,0.00,,,0.00,Wunderground v.1.15,2013-08-06 07:05:00,
2013-08-06 00:15:00,53.5,52.7,29.99,SW,225,2.0,3.0,97,0.00,,,0.00,Wunderground v.1.15,2013-08-06 07:15:00,
2013-08-06 00:20:00,53.5,52.7,29.99,SW,225,2.0,2.0,97,0.00,,,0.00,Wunderground v.1.15,2013-08-06 07:20:00,
2013-08-06 00:25:00,53.4,52.6,29.99,SW,225,2.0,3.0,97,0.00,,,0.00,Wunderground v.1.15,2013-08-06 07:25:00,
2013-08-06 00:30:00,53.4,52.3,29.99,SW,225,3.0,3.0,96,0.00,,,0.00,Wunderground v.1.15,2013-08-06 07:30:00,
2013-08-06 00:35:00,53.3,52.2,29.99,SW,228,3.0,4.0,96,0.00,,,0.00,Wunderground v.1.15,2013-08-06 07:35:00,
2013-08-06 00:40:00,53.4,52.6,29.99,SW,228,3.0,3.0,97,0.00,,,0.00,Wunderground v.1.15,2013-08-06 07:40:00,
2013-08-06 00:50:00,53.3,52.5,29.99,SW,224,3.0,3.0,97,0.00,,,0.00,Wunderground v.1.15,2013-08-06 07:50:00,
2013-08-06 00:55:00,53.2,52.1,29.99,SW,228,3.0,3.0,96,0.00,,,0.00,Wunderground v.1.15,2013-08-06 07:55:00,
2013-08-06 01:00:00,53.2,52.1,29.99,SW,221,3.0,4.0,96,0.00,,,0.00,Wunderground v.1.15,2013-08-06 08:00:00,
2013-08-06 01:05:00,53.2,52.4,29.99,SW,229,4.0,10.0,97,0.00,,,0.00,Wunderground v.1.15,2013-08-06 08:05:00,
2013-08-06 01:10:00,53.2,52.4,29.98,SW,225,3.0,3.0,97,0.00,,,0.00,Wunderground v.1.15,2013-08-06 08:10:00,
2013-08-06 01:20:00,53.2,52.4,29.98,SW,222,3.0,10.0,97,0.00,,,0.00,Wunderground v.1.15,2013-08-06 08:20:00,
2013-08-06 01:25:00,53.1,52.3,29.99,SW,218,3.0,10.0,97,0.00,,,0.00,Wunderground v.1.15,2013-08-06 08:25:00,
2013-08-06 01:30:00,52.9,51.8,29.99,SW,219,4.0,10.0,96,0.00,,,0.00,Wunderground v.1.15,2013-08-06 08:30:00,
2013-08-06 01:40:00,52.8,51.7,29.99,WSW,238,4.0,4.0,96,0.00,,,0.00,Wunderground v.1.15,2013-08-06 08:40:00,
2013-08-06 01:45:00,52.8,51.7,29.99,WSW,238,3.0,10.0,96,0.00,,,0.00,Wunderground v.1.15,2013-08-06 08:45:00,
2013-08-06 01:50:00,52.7,51.6,30.00,WSW,238,2.0,10.0,96,0.00,,,0.00,Wunderground v.1.15,2013-08-06 08:50:00,
2013-08-06 01:55:00,52.6,51.5,29.99,WSW,238,2.0,10.0,96,0.00,,,0.00,Wunderground v.1.15,2013-08-06 08:55:00,
2013-08-06 02:00:00,52.6,51.5,29.99,WSW,238,1.0,10.0,96,0.00,,,0.00,Wunderground v.1.15,2013-08-06 09:00:00,
2013-08-06 02:10:00,52.4,51.3,29.99,SW,236,2.0,2.0,96,0.00,,,0.00,Wunderground v.1.15,2013-08-06 09:10:00,
2013-08-06 02:15:00,52.4,51.6,29.99,SW,229,3.0,4.0,97,0.00,,,0.00,Wunderground v.1.15,2013-08-06 09:15:00,
2013-08-06 02:20:00,52.4,51.6,29.99,SW,232,3.0,10.0,97,0.00,,,0.00,Wunderground v.1.15,2013-08-06 09:20:00,
2013-08-06 02:25:00,52.3,51.5,29.99,SW,230,3.0,10.0,97,0.00,,,0.00,Wunderground v.1.15,2013-08-06 09:25:00,
2013-08-06 02:30:00,52.2,51.1,29.99,SW,232,3.0,3.0,96,0.00,,,0.00,Wunderground v.1.15,2013-08-06 09:30:00,
2013-08-06 02:40:00,52.1,51.0,29.99,SW,233,2.0,2.0,96,0.00,,,0.00,Wunderground v.1.15,2013-08-06 09:40:00,
2013-08-06 02:45:00,52.2,51.4,29.99,SW,233,1.0,10.0,97,0.00,,,0.00,Wunderground v.1.15,2013-08-06 09:45:00,
2013-08-06 02:50:00,52.2,51.4,29.99,SW,233,0.0,10.0,97,0.00,,,0.00,Wunderground v.1.15,2013-08-06 09:50:00,
2013-08-06 02:55:00,52.2,51.4,29.99,SW,232,1.0,10.0,97,0.00,,,0.00,Wunderground v.1.15,2013-08-06 09:55:00,
2013-08-06 03:00:00,52.1,51.3,29.99,SW,231,2.0,10.0,97,0.00,,,0.00,Wunderground v.1.15,2013-08-06 10:00:00,
2013-08-06 03:10:00,52.0,51.2,29.99,SW,227,4.0,4.0,97,0.00,,,0.00,Wunderground v.1.15,2013-08-06 10:10:00,
2013-08-06 03:15:00,52.0,51.2,29.99,SW,227,4.0,10.0,97,0.00,,,0.00,Wunderground v.1.15,2013-08-06 10:15:00,
2013-08-06 03:20:00,52.0,51.2,29.99,SW,227,2.0,2.0,97,0.00,,,0.00,Wunderground v.1.15,2013-08-06 10:20:00,
2013-08-06 03:25:00,52.1,51.3,29.99,SW,228,1.0,3.0,97,0.00,,,0.00,Wunderground v.1.15,2013-08-06 10:25:00,
2013-08-06 03:35:00,52.1,51.3,29.99,SW,230,2.0,10.0,97,0.00,,,0.00,Wunderground v.1.15,2013-08-06 10:35:00,
2013-08-06 03:40:00,52.1,51.3,29.99,SW,230,2.0,2.0,97,0.00,,,0.00,Wunderground v.1.15,2013-08-06 10:40:00,
2013-08-06 03:45:00,52.1,51.3,29.99,SW,229,2.0,5.0,97,0.00,,,0.00,Wunderground v.1.15,2013-08-06 10:45:00,
2013-08-06 03:50:00,52.1,51.3,29.99,SW,226,2.0,10.0,97,0.00,,,0.00,Wunderground v.1.15,2013-08-06 10:50:00,
2013-08-06 04:00:00,52.1,51.3,29.99,SW,226,2.0,2.0,97,0.00,,,0.00,Wunderground v.1.15,2013-08-06 11:00:00,
2013-08-06 04:05:00,52.1,51.3,29.99,SW,225,2.0,10.0,97,0.00,,,0.00,Wunderground v.1.15,2013-08-06 11:05:00,
2013-08-06 04:10:00,52.1,51.3,29.99,SW,225,2.0,10.0,97,0.00,,,0.00,Wunderground v.1.15,2013-08-06 11:10:00,
2013-08-06 04:15:00,52.1,51.3,29.99,SW,225,2.0,10.0,97,0.00,,,0.00,Wunderground v.1.15,2013-08-06 11:15:00,
2013-08-06 04:25:00,51.9,50.8,29.99,SW,222,4.0,10.0,96,0.00,,,0.00,Wunderground v.1.15,2013-08-06 11:25:00,
2013-08-06 04:30:00,51.9,50.8,29.99,SW,222,2.0,10.0,96,0.00,,,0.00,Wunderground v.1.15,2013-08-06 11:30:00,
2013-08-06 04:35:00,51.9,50.8,29.99,SW,222,1.0,10.0,96,0.00,,,0.00,Wunderground v.1.15,2013-08-06 11:35:00,
2013-08-06 04:40:00,51.9,50.8,29.99,SW,222,0.0,10.0,96,0.00,,,0.00,Wunderground v.1.15,2013-08-06 11:40:00,
2013-08-06 04:45:00,51.9,50.8,29.99,SW,222,1.0,10.0,96,0.00,,,0.00,Wunderground v.1.15,2013-08-06 11:45:00,
2013-08-06 04:50:00,51.8,50.7,29.99,SW,220,2.0,10.0,96,0.00,,,0.00,Wunderground v.1.15,2013-08-06 11:50:00,
2013-08-06 05:00:00,51.8,50.7,29.99,SW,220,3.0,3.0,96,0.00,,,0.00,Wunderground v.1.15,2013-08-06 12:00:00,
2013-08-06 05:05:00,51.8,50.7,29.99,SW,220,1.0,10.0,96,0.00,,,0.00,Wunderground v.1.15,2013-08-06 12:05:00,
2013-08-06 05:10:00,51.8,51.0,29.99,SW,220,1.0,1.0,97,0.00,,,0.00,Wunderground v.1.15,2013-08-06 12:10:00,
2013-08-06 05:15:00,51.8,51.0,29.99,SW,220,2.0,2.0,97,0.00,,,0.00,Wunderground v.1.15,2013-08-06 12:15:00,
2013-08-06 05:20:00,51.8,51.0,29.99,SW,220,1.0,10.0,97,0.00,,,0.00,Wunderground v.1.15,2013-08-06 12:20:00,
2013-08-06 05:30:00,51.7,50.6,29.99,SW,221,2.0,10.0,96,0.00,,,0.00,Wunderground v.1.15,2013-08-06 12:30:00,
2013-08-06 05:35:00,51.7,50.6,29.99,SW,222,3.0,10.0,96,0.00,,,0.00,Wunderground v.1.15,2013-08-06 12:35:00,
2013-08-06 05:40:00,51.7,50.6,29.99,SW,223,3.0,3.0,96,0.00,,,0.00,Wunderground v.1.15,2013-08-06 12:40:00,
2013-08-06 05:45:00,51.7,50.6,29.99,SW,223,2.0,10.0,96,0.00,,,0.00,Wunderground v.1.15,2013-08-06 12:45:00,
2013-08-06 05:55:00,51.7,50.6,29.99,SSW,204,1.0,10.0,96,0.00,,,0.00,Wunderground v.1.15,2013-08-06 12:55:00,
2013-08-06 06:00:00,51.7,50.6,30.00,SSW,204,1.0,1.0,96,0.00,,,0.00,Wunderground v.1.15,2013-08-06 13:00:00,
2013-08-06 06:05:00,51.7,50.6,30.00,SSW,204,1.0,2.0,96,0.00,,,0.00,Wunderground v.1.15,2013-08-06 13:05:00,
2013-08-06 06:10:00,51.8,50.7,30.00,SSW,204,1.0,10.0,96,0.00,,,0.00,Wunderground v.1.15,2013-08-06 13:10:00,
2013-08-06 06:20:00,51.8,50.7,30.00,SSW,204,1.0,10.0,96,0.00,,,0.00,Wunderground v.1.15,2013-08-06 13:20:00,
2013-08-06 06:25:00,51.9,50.8,30.01,SSW,204,1.0,10.0,96,0.00,,,0.00,Wunderground v.1.15,2013-08-06 13:25:00,
2013-08-06 06:30:00,51.9,50.8,30.01,SSW,205,1.0,10.0,96,0.00,,,0.00,Wunderground v.1.15,2013-08-06 13:30:00,
2013-08-06 06:35:00,51.8,50.7,30.01,SSW,205,2.0,10.0,96,0.00,,,0.00,Wunderground v.1.15,2013-08-06 13:35:00,
2013-08-06 06:40:00,51.7,50.6,30.01,SSW,205,2.0,2.0,96,0.00,,,0.00,Wunderground v.1.15,2013-08-06 13:40:00,
2013-08-06 06:50:00,51.6,50.5,30.01,SSW,205,1.0,10.0,96,0.00,,,0.00,Wunderground v.1.15,2013-08-06 13:50:00,
2013-08-06 06:55:00,51.5,50.4,30.01,SSW,205,0.0,10.0,96,0.00,,,0.00,Wunderground v.1.15,2013-08-06 13:55:00,
2013-08-06 07:00:00,51.5,50.4,30.01,SSW,205,0.0,10.0,96,0.00,,,0.00,Wunderground v.1.15,2013-08-06 14:00:00,
2013-08-06 07:05:00,51.6,50.5,30.01,SSW,205,0.0,10.0,96,0.00,,,0.00,Wunderground v.1.15,2013-08-06 14:05:00,
2013-08-06 07:10:00,51.7,50.6,30.01,SSW,205,0.0,10.0,96,0.00,,,0.00,Wunderground v.1.15,2013-08-06 14:10:00,
2013-08-06 07:20:00,51.8,50.7,30.01,SSW,209,1.0,1.0,96,0.00,,,0.00,Wunderground v.1.15,2013-08-06 14:20:00,
2013-08-06 07:25:00,51.8,50.7,30.01,WSW,256,2.0,2.0,96,0.00,,,0.00,Wunderground v.1.15,2013-08-06 14:25:00,
2013-08-06 07:30:00,51.8,50.7,30.01,WSW,256,2.0,2.0,96,0.00,,,0.00,Wunderground v.1.15,2013-08-06 14:30:00,
2013-08-06 07:35:00,51.9,51.1,30.01,WSW,256,1.0,10.0,97,0.00,,,0.00,Wunderground v.1.15,2013-08-06 14:35:00,
2013-08-06 07:45:00,52.0,50.9,30.01,West,264,1.0,10.0,96,0.00,,,0.00,Wunderground v.1.15,2013-08-06 14:45:00,
2013-08-06 07:50:00,52.2,51.1,30.02,West,263,2.0,10.0,96,0.00,,,0.00,Wunderground v.1.15,2013-08-06 14:50:00,
2013-08-06 07:55:00,52.3,51.2,30.02,West,263,3.0,10.0,96,0.00,,,0.00,Wunderground v.1.15,2013-08-06 14:55:00,
2013-08-06 08:00:00,52.6,51.2,30.02,WSW,252,3.0,10.0,95,0.00,,,0.00,Wunderground v.1.15,2013-08-06 15:00:00,
2013-08-06 08:05:00,52.7,51.3,30.02,WSW,251,3.0,10.0,95,0.00,,,0.00,Wunderground v.1.15,2013-08-06 15:05:00,
2013-08-06 08:15:00,53.1,51.7,30.02,WSW,250,2.0,10.0,95,0.00,,,0.00,Wunderground v.1.15,2013-08-06 15:15:00,
2013-08-06 08:20:00,53.2,51.2,30.02,WSW,254,3.0,10.0,93,0.00,,,0.00,Wunderground v.1.15,2013-08-06 15:20:00,
2013-08-06 08:25:00,53.2,51.5,30.03,WSW,254,3.0,10.0,94,0.00,,,0.00,Wunderground v.1.15,2013-08-06 15:25:00,
2013-08-06 08:30:00,53.4,51.4,30.03,West,259,2.0,10.0,93,0.00,,,0.00,Wunderground v.1.15,2013-08-06 15:30:00,
2013-08-06 08:35:00,53.6,51.6,30.03,WSW,244,2.0,10.0,93,0.00,,,0.00,Wunderground v.1.15,2013-08-06 15:35:00,
2013-08-06 08:40:00,53.9,51.6,30.03,SW,230,3.0,10.0,92,0.00,,,0.00,Wunderground v.1.15,2013-08-06 15:40:00,
2013-08-06 08:50:00,54.4,51.5,30.03,SSW,198,4.0,4.0,90,0.00,,,0.00,Wunderground v.1.15,2013-08-06 15:50:00,
2013-08-06 08:55:00,54.6,51.7,30.03,SSW,196,3.0,10.0,90,0.00,,,0.00,Wunderground v.1.15,2013-08-06 15:55:00,
2013-08-06 09:00:00,54.9,52.0,30.03,SSW,195,2.0,2.0,90,0.00,,,0.00,Wunderground v.1.15,2013-08-06 16:00:00,
2013-08-06 09:05:00,55.3,52.1,30.03,SSW,197,3.0,3.0,89,0.00,,,0.00,Wunderground v.1.15,2013-08-06 16:05:00,
2013-08-06 09:10:00,55.9,52.4,30.03,SSW,195,2.0,2.0,88,0.00,,,0.00,Wunderground v.1.15,2013-08-06 16:10:00,
2013-08-06 09:20:00,56.2,52.4,30.03,SW,221,4.0,4.0,87,0.00,,,0.00,Wunderground v.1.15,2013-08-06 16:20:00,
2013-08-06 09:25:00,56.7,52.6,30.03,SSW,204,5.0,5.0,86,0.00,,,0.00,Wunderground v.1.15,2013-08-06 16:25:00,
2013-08-06 09:30:00,56.9,52.4,30.03,SSW,209,3.0,3.0,85,0.00,,,0.00,Wunderground v.1.15,2013-08-06 16:30:00,
2013-08-06 09:35:00,56.9,52.8,30.03,SW,226,3.0,10.0,86,0.00,,,0.00,Wunderground v.1.15,2013-08-06 16:35:00,
2013-08-06 09:40:00,57.3,52.8,30.03,SW,217,3.0,3.0,85,0.00,,,0.00,Wunderground v.1.15,2013-08-06 16:40:00,
2013-08-06 09:50:00,57.5,52.7,30.03,SSW,210,5.0,10.0,84,0.00,,,0.00,Wunderground v.1.15,2013-08-06 16:50:00,
2013-08-06 09:55:00,58.0,52.9,30.03,SW,219,5.0,10.0,83,0.00,,,0.00,Wunderground v.1.15,2013-08-06 16:55:00,
2013-08-06 10:00:00,58.5,53.7,30.03,SSW,207,4.0,4.0,84,0.00,,,0.00,Wunderground v.1.15,2013-08-06 17:00:00,
2013-08-06 10:05:00,59.1,53.3,30.03,SSW,211,3.0,10.0,81,0.00,,,0.00,Wunderground v.1.15,2013-08-06 17:05:00,
2013-08-06 10:10:00,59.0,53.8,30.03,SW,236,4.0,10.0,83,0.00,,,0.00,Wunderground v.1.15,2013-08-06 17:10:00,
2013-08-06 10:20:00,59.5,53.0,30.03,SW,214,5.0,5.0,79,0.00,,,0.00,Wunderground v.1.15,2013-08-06 17:20:00,
2013-08-06 10:25:00,59.7,53.5,30.03,South,189,4.0,10.0,80,0.00,,,0.00,Wunderground v.1.15,2013-08-06 17:25:00,
2013-08-06 10:30:00,60.4,53.2,30.03,SSW,211,3.0,10.0,77,0.00,,,0.00,Wunderground v.1.15,2013-08-06 17:30:00,
2013-08-06 10:40:00,60.6,53.7,30.03,SSW,196,5.0,10.0,78,0.00,,,0.00,Wunderground v.1.15,2013-08-06 17:40:00,
2013-08-06 10:45:00,60.9,53.6,30.03,WSW,250,5.0,10.0,77,0.00,,,0.00,Wunderground v.1.15,2013-08-06 17:45:00,
2013-08-06 10:50:00,60.8,53.5,30.04,SW,225,6.0,6.0,77,0.00,,,0.00,Wunderground v.1.15,2013-08-06 17:50:00,
2013-08-06 10:55:00,60.5,53.6,30.03,SW,221,6.0,10.0,78,0.00,,,0.00,Wunderground v.1.15,2013-08-06 17:55:00,
2013-08-06 11:00:00,60.6,53.3,30.03,SSW,203,6.0,6.0,77,0.00,,,0.00,Wunderground v.1.15,2013-08-06 18:00:00,
2013-08-06 11:10:00,61.3,53.7,30.03,WSW,254,5.0,10.0,76,0.00,,,0.00,Wunderground v.1.15,2013-08-06 18:10:00,
2013-08-06 11:15:00,61.6,53.6,30.04,SW,217,6.0,10.0,75,0.00,,,0.00,Wunderground v.1.15,2013-08-06 18:15:00,
2013-08-06 11:20:00,61.8,53.8,30.04,SW,229,5.0,10.0,75,0.00,,,0.00,Wunderground v.1.15,2013-08-06 18:20:00,
2013-08-06 11:25:00,62.0,54.0,30.03,SSW,206,5.0,10.0,75,0.00,,,0.00,Wunderground v.1.15,2013-08-06 18:25:00,
2013-08-06 11:30:00,62.4,54.0,30.04,SSW,205,5.0,10.0,74,0.00,,,0.00,Wunderground v.1.15,2013-08-06 18:30:00,
2013-08-06 11:40:00,62.2,53.8,30.03,WSW,242,6.0,10.0,74,0.00,,,0.00,Wunderground v.1.15,2013-08-06 18:40:00,
2013-08-06 11:45:00,62.4,54.0,30.04,SW,220,6.0,10.0,74,0.00,,,0.00,Wunderground v.1.15,2013-08-06 18:45:00,
2013-08-06 11:50:00,62.5,53.7,30.04,SSW,192,6.0,6.0,73,0.00,,,0.00,Wunderground v.1.15,2013-08-06 18:50:00,
2013-08-06 11:55:00,62.6,53.8,30.04,SSW,200,6.0,7.0,73,0.00,,,0.00,Wunderground v.1.15,2013-08-06 18:55:00,
2013-08-06 12:00:00,62.5,53.7,30.04,SSW,203,6.0,10.0,73,0.00,,,0.00,Wunderground v.1.15,2013-08-06 19:00:00,
2013-08-06 12:05:00,62.1,54.1,30.04,SW,223,6.0,10.0,75,0.00,,,0.00,Wunderground v.1.15,2013-08-06 19:05:00,
2013-08-06 12:15:00,62.8,54.4,30.03,SW,214,7.0,10.0,74,0.00,,,0.00,Wunderground v.1.15,2013-08-06 19:15:00,
2013-08-06 12:20:00,63.0,54.2,30.03,SW,225,7.0,10.0,73,0.00,,,0.00,Wunderground v.1.15,2013-08-06 19:20:00,
2013-08-06 12:25:00,63.1,54.3,30.03,SW,225,7.0,10.0,73,0.00,,,0.00,Wunderground v.1.15,2013-08-06 19:25:00,
2013-08-06 12:30:00,63.4,54.2,30.03,SW,222,7.0,7.0,72,0.00,,,0.00,Wunderground v.1.15,2013-08-06 19:30:00,
2013-08-06 12:35:00,63.9,54.3,30.03,SSW,198,7.0,10.0,71,0.00,,,0.00,Wunderground v.1.15,2013-08-06 19:35:00,
2013-08-06 12:45:00,63.2,54.0,30.03,SSW,198,8.0,10.0,72,0.00,,,0.00,Wunderground v.1.15,2013-08-06 19:45:00,
2013-08-06 12:50:00,63.5,54.3,30.03,SSW,209,8.0,10.0,72,0.00,,,0.00,Wunderground v.1.15,2013-08-06 19:50:00,
2013-08-06 12:55:00,63.3,53.7,30.03,SSW,198,9.0,10.0,71,0.00,,,0.00,Wunderground v.1.15,2013-08-06 19:55:00,
2013-08-06 13:00:00,63.0,53.8,30.03,SSW,202,10.0,10.0,72,0.00,,,0.00,Wunderground v.1.15,2013-08-06 20:00:00,
2013-08-06 13:05:00,63.4,53.8,30.03,SSW,206,10.0,10.0,71,0.00,,,0.00,Wunderground v.1.15,2013-08-06 20:05:00,
2013-08-06 13:15:00,63.7,53.7,30.03,SW,221,10.0,12.0,70,0.00,,,0.00,Wunderground v.1.15,2013-08-06 20:15:00,
2013-08-06 13:20:00,64.1,54.1,30.03,SSW,205,9.0,13.0,70,0.00,,,0.00,Wunderground v.1.15,2013-08-06 20:20:00,
2013-08-06 13:25:00,64.0,54.4,30.03,South,178,8.0,13.0,71,0.00,,,0.00,Wunderground v.1.15,2013-08-06 20:25:00,
2013-08-06 13:30:00,64.5,54.1,30.03,SW,233,9.0,9.0,69,0.00,,,0.00,Wunderground v.1.15,2013-08-06 20:30:00,
2013-08-06 13:40:00,64.2,54.6,30.03,SW,228,10.0,10.0,71,0.00,,,0.00,Wunderground v.1.15,2013-08-06 20:40:00,
2013-08-06 13:45:00,63.9,54.3,30.02,SSW,204,10.0,10.0,71,0.00,,,0.00,Wunderground v.1.15,2013-08-06 20:45:00,
2013-08-06 13:50:00,64.5,54.5,30.02,SSE,168,10.0,13.0,70,0.00,,,0.00,Wunderground v.1.15,2013-08-06 20:50:00,
2013-08-06 14:00:00,63.9,54.3,30.02,SW,227,9.0,9.0,71,0.00,,,0.00,Wunderground v.1.15,2013-08-06 21:00:00,
2013-08-06 14:05:00,63.7,53.7,30.02,SSW,208,10.0,14.0,70,0.00,,,0.00,Wunderground v.1.15,2013-08-06 21:05:00,
2013-08-06 14:10:00,63.8,54.2,30.02,SW,221,11.0,12.0,71,0.00,,,0.00,Wunderground v.1.15,2013-08-06 21:10:00,
2013-08-06 14:15:00,63.7,54.1,30.02,SW,227,10.0,15.0,71,0.00,,,0.00,Wunderground v.1.15,2013-08-06 21:15:00,
2013-08-06 14:25:00,63.5,54.3,30.02,SW,224,10.0,13.0,72,0.00,,,0.00,Wunderground v.1.15,2013-08-06 21:25:00,
2013-08-06 14:30:00,63.4,54.6,30.02,SW,223,9.0,12.0,73,0.00,,,0.00,Wunderground v.1.15,2013-08-06 21:30:00,
2013-08-06 14:35:00,63.3,54.1,30.02,SSE,163,9.0,12.0,72,0.00,,,0.00,Wunderground v.1.15,2013-08-06 21:35:00,
2013-08-06 14:40:00,62.6,54.6,30.02,SSW,199,9.0,9.0,75,0.00,,,0.00,Wunderground v.1.15,2013-08-06 21:40:00,
2013-08-06 14:50:00,62.5,54.8,30.02,South,173,8.0,10.0,76,0.00,,,0.00,Wunderground v.1.15,2013-08-06 21:50:00,
2013-08-06 14:55:00,63.0,54.9,30.02,SW,223,8.0,10.0,75,0.00,,,0.00,Wunderground v.1.15,2013-08-06 21:55:00,
2013-08-06 15:00:00,63.2,54.8,30.02,South,175,8.0,8.0,74,0.00,,,0.00,Wunderground v.1.15,2013-08-06 22:00:00,
2013-08-06 15:05:00,63.1,55.0,30.02,SSW,202,9.0,11.0,75,0.00,,,0.00,Wunderground v.1.15,2013-08-06 22:05:00,
2013-08-06 15:10:00,62.6,54.6,30.02,SSE,165,9.0,10.0,75,0.00,,,0.00,Wunderground v.1.15,2013-08-06 22:10:00,
2013-08-06 15:20:00,61.9,54.6,30.02,South,189,10.0,10.0,77,0.00,,,0.00,Wunderground v.1.15,2013-08-06 22:20:00,
2013-08-06 15:25:00,62.5,54.8,30.01,South,173,9.0,10.0,76,0.00,,,0.00,Wunderground v.1.15,2013-08-06 22:25:00,
2013-08-06 15:30:00,62.9,54.9,30.01,South,181,9.0,9.0,75,0.00,,,0.00,Wunderground v.1.15,2013-08-06 22:30:00,
2013-08-06 15:35:00,63.4,55.0,30.01,SW,219,9.0,13.0,74,0.00,,,0.00,Wunderground v.1.15,2013-08-06 22:35:00,
2013-08-06 15:40:00,63.9,55.1,30.01,SSW,213,10.0,13.0,73,0.00,,,0.00,Wunderground v.1.15,2013-08-06 22:40:00,
2013-08-06 15:50:00,64.3,55.5,30.01,SSW,194,13.0,13.0,73,0.00,,,0.00,Wunderground v.1.15,2013-08-06 22:50:00,
2013-08-06 15:55:00,63.6,55.2,30.01,SW,229,11.0,13.0,74,0.00,,,0.00,Wunderground v.1.15,2013-08-06 22:55:00,
2013-08-06 16:00:00,64.6,55.7,30.01,SW,227,10.0,15.0,73,0.00,,,0.00,Wunderground v.1.15,2013-08-06 23:00:00,
2013-08-06 16:05:00,64.2,55.4,30.01,SW,215,12.0,15.0,73,0.00,,,0.00,Wunderground v.1.15,2013-08-06 23:05:00,
2013-08-06 16:10:00,64.1,55.3,30.01,SSW,202,13.0,13.0,73,0.00,,,0.00,Wunderground v.1.15,2013-08-06 23:10:00,
2013-08-06 16:20:00,63.4,55.0,30.01,SSW,213,13.0,14.0,74,0.00,,,0.00,Wunderground v.1.15,2013-08-06 23:20:00,
2013-08-06 16:25:00,63.6,55.2,30.01,SSW,202,14.0,14.0,74,0.00,,,0.00,Wunderground v.1.15,2013-08-06 23:25:00,
2013-08-06 16:30:00,63.3,54.9,30.01,SW,227,13.0,15.0,74,0.00,,,0.00,Wunderground v.1.15,2013-08-06 23:30:00,
2013-08-06 16:35:00,63.2,55.1,30.01,SSW,208,12.0,15.0,75,0.00,,,0.00,Wunderground v.1.15,2013-08-06 23:35:00,
2013-08-06 16:40:00,62.0,54.7,30.01,SW,231,13.0,14.0,77,0.00,,,0.00,Wunderground v.1.15,2013-08-06 23:40:00,
2013-08-06 16:50:00,62.0,55.1,30.01,SW,220,13.0,15.0,78,0.00,,,0.00,Wunderground v.1.15,2013-08-06 23:50:00,
2013-08-06 16:55:00,61.9,55.0,30.01,SSW,213,13.0,15.0,78,0.00,,,0.00,Wunderground v.1.15,2013-08-06 23:55:00,
2013-08-06 17:00:00,61.6,54.7,30.01,SW,227,13.0,13.0,78,0.00,,,0.00,Wunderground v.1.15,2013-08-07 00:00:00,
2013-08-06 17:05:00,61.1,54.5,30.01,SW,219,12.0,13.0,79,0.00,,,0.00,Wunderground v.1.15,2013-08-07 00:05:00,
2013-08-06 17:15:00,60.0,53.8,30.01,SSW,211,8.0,10.0,80,0.00,,,0.00,Wunderground v.1.15,2013-08-07 00:15:00,
2013-08-06 17:20:00,59.4,53.6,30.01,South,191,9.0,15.0,81,0.00,,,0.00,Wunderground v.1.15,2013-08-07 00:20:00,
2013-08-06 17:25:00,59.0,53.5,30.01,SW,214,10.0,15.0,82,0.00,,,0.00,Wunderground v.1.15,2013-08-07 00:25:00,
2013-08-06 17:30:00,59.2,54.0,30.01,SW,228,10.0,10.0,83,0.00,,,0.00,Wunderground v.1.15,2013-08-07 00:30:00,
2013-08-06 17:35:00,59.5,54.3,30.01,SW,217,10.0,12.0,83,0.00,,,0.00,Wunderground v.1.15,2013-08-07 00:35:00,
2013-08-06 17:45:00,59.6,54.4,30.01,SSW,213,11.0,14.0,83,0.00,,,0.00,Wunderground v.1.15,2013-08-07 00:45:00,
2013-08-06 17:50:00,59.9,54.4,30.01,SW,227,10.0,17.0,82,0.00,,,0.00,Wunderground v.1.15,2013-08-07 00:50:00,
2013-08-06 17:55:00,59.9,54.4,30.01,SW,219,11.0,17.0,82,0.00,,,0.00,Wunderground v.1.15,2013-08-07 00:55:00,
2013-08-06 18:00:00,59.8,54.3,30.01,SW,224,12.0,12.0,82,0.00,,,0.00,Wunderground v.1.15,2013-08-07 01:00:00,
2013-08-06 18:05:00,60.1,54.6,30.01,SW,227,11.0,15.0,82,0.00,,,0.00,Wunderground v.1.15,2013-08-07 01:05:00,
2013-08-06 18:15:00,59.6,54.4,30.01,SW,220,10.0,13.0,83,0.00,,,0.00,Wunderground v.1.15,2013-08-07 01:15:00,
2013-08-06 18:20:00,59.5,54.3,30.01,SW,215,11.0,11.0,83,0.00,,,0.00,Wunderground v.1.15,2013-08-07 01:20:00,
2013-08-06 18:25:00,59.6,54.4,30.01,SW,216,10.0,13.0,83,0.00,,,0.00,Wunderground v.1.15,2013-08-07 01:25:00,
2013-08-06 18:30:00,59.5,54.3,30.01,SW,225,11.0,11.0,83,0.00,,,0.00,Wunderground v.1.15,2013-08-07 01:30:00,
2013-08-06 18:35:00,59.5,54.3,30.01,SW,222,11.0,11.0,83,0.00,,,0.00,Wunderground v.1.15,2013-08-07 01:35:00,
2013-08-06 18:45:00,59.2,54.4,30.01,SW,217,10.0,10.0,84,0.00,,,0.00,Wunderground v.1.15,2013-08-07 01:45:00,
2013-08-06 18:50:00,59.0,54.2,30.01,SW,218,11.0,11.0,84,0.00,,,0.00,Wunderground v.1.15,2013-08-07 01:50:00,
2013-08-06 18:55:00,58.9,54.4,30.01,SSW,213,10.0,11.0,85,0.00,,,0.00,Wunderground v.1.15,2013-08-07 01:55:00,
2013-08-06 19:00:00,58.8,54.3,30.01,SW,215,9.0,11.0,85,0.00,,,0.00,Wunderground v.1.15,2013-08-07 02:00:00,
2013-08-06 19:10:00,58.7,54.5,30.00,SW,224,9.0,10.0,86,0.00,,,0.00,Wunderground v.1.15,2013-08-07 02:10:00,
2013-08-06 19:15:00,58.6,54.4,30.00,SW,224,9.0,10.0,86,0.00,,,0.00,Wunderground v.1.15,2013-08-07 02:15:00,
2013-08-06 19:20:00,58.6,54.4,30.01,SW,219,9.0,9.0,86,0.00,,,0.00,Wunderground v.1.15,2013-08-07 02:20:00,
2013-08-06 19:25:00,58.7,54.5,30.01,SW,214,7.0,10.0,86,0.00,,,0.00,Wunderground v.1.15,2013-08-07 02:25:00,
2013-08-06 19:35:00,58.5,54.3,30.01,SW,216,6.0,10.0,86,0.00,,,0.00,Wunderground v.1.15,2013-08-07 02:35:00,
2013-08-06 19:40:00,58.5,54.3,30.01,SW,220,5.0,10.0,86,0.00,,,0.00,Wunderground v.1.15,2013-08-07 02:40:00,
2013-08-06 19:45:00,58.4,54.2,30.02,SSW,213,5.0,10.0,86,0.00,,,0.00,Wunderground v.1.15,2013-08-07 02:45:00,
2013-08-06 19:50:00,58.4,54.2,30.02,SW,216,5.0,10.0,86,0.00,,,0.00,Wunderground v.1.15,2013-08-07 02:50:00,
2013-08-06 20:00:00,58.3,54.1,30.01,SW,222,6.0,10.0,86,0.00,,,0.00,Wunderground v.1.15,2013-08-07 03:00:00,
2013-08-06 20:05:00,58.3,54.4,30.01,SW,219,4.0,10.0,87,0.00,,,0.00,Wunderground v.1.15,2013-08-07 03:05:00,
2013-08-06 20:10:00,58.2,54.3,30.02,SSW,200,3.0,10.0,87,0.00,,,0.00,Wunderground v.1.15,2013-08-07 03:10:00,
2013-08-06 20:15:00,58.1,54.2,30.02,SSW,209,4.0,10.0,87,0.00,,,0.00,Wunderground v.1.15,2013-08-07 03:15:00,
2013-08-06 20:20:00,58.1,54.2,30.02,SSW,211,4.0,4.0,87,0.00,,,0.00,Wunderground v.1.15,2013-08-07 03:20:00,
2013-08-06 20:30:00,58.0,54.2,30.02,SSW,201,3.0,10.0,87,0.00,,,0.00,Wunderground v.1.15,2013-08-07 03:30:00,
2013-08-06 20:35:00,57.8,54.3,30.02,SSW,202,4.0,10.0,88,0.00,,,0.00,Wunderground v.1.15,2013-08-07 03:35:00,
2013-08-06 20:40:00,57.8,54.3,30.02,SSW,209,4.0,10.0,88,0.00,,,0.00,Wunderground v.1.15,2013-08-07 03:40:00,
2013-08-06 20:45:00,57.7,54.2,30.02,SSW,195,4.0,10.0,88,0.00,,,0.00,Wunderground v.1.15,2013-08-07 03:45:00,
2013-08-06 20:50:00,57.7,54.2,30.02,SSW,196,2.0,2.0,88,0.00,,,0.00,Wunderground v.1.15,2013-08-07 03:50:00,
2013-08-06 20:55:00,57.6,54.1,30.02,SSW,209,2.0,10.0,88,0.00,,,0.00,Wunderground v.1.15,2013-08-07 03:55:00,
2013-08-06 21:05:00,57.7,54.2,30.03,SSW,209,3.0,10.0,88,0.00,,,0.00,Wunderground v.1.15,2013-08-07 04:05:00,
2013-08-06 21:10:00,57.7,54.2,30.03,SSW,207,2.0,10.0,88,0.00,,,0.00,Wunderground v.1.15,2013-08-07 04:10:00,
2013-08-06 21:15:00,57.7,54.2,30.03,SSW,211,2.0,10.0,88,0.00,,,0.00,Wunderground v.1.15,2013-08-07 04:15:00,
2013-08-06 21:20:00,57.7,54.2,30.03,SSW,212,3.0,10.0,88,0.00,,,0.00,Wunderground v.1.15,2013-08-07 04:20:00,
2013-08-06 21:25:00,57.7,54.2,30.03,SSW,211,4.0,10.0,88,0.00,,,0.00,Wunderground v.1.15,2013-08-07 04:25:00,
2013-08-06 21:30:00,57.7,54.5,30.03,SSW,211,4.0,10.0,89,0.00,,,0.00,Wunderground v.1.15,2013-08-07 04:30:00,
2013-08-06 21:35:00,57.6,54.4,30.04,SSW,211,2.0,10.0,89,0.00,,,0.00,Wunderground v.1.15,2013-08-07 04:35:00,
2013-08-06 21:40:00,57.6,54.4,30.03,SSW,211,2.0,10.0,89,0.00,,,0.00,Wunderground v.1.15,2013-08-07 04:40:00,
2013-08-06 21:45:00,57.6,54.4,30.03,SSW,210,3.0,10.0,89,0.00,,,0.00,Wunderground v.1.15,2013-08-07 04:45:00,
2013-08-06 21:50:00,57.6,54.4,30.03,SSW,211,3.0,10.0,89,0.00,,,0.00,Wunderground v.1.15,2013-08-07 04:50:00,
2013-08-06 21:55:00,57.5,54.3,30.04,SSW,211,3.0,10.0,89,0.00,,,0.00,Wunderground v.1.15,2013-08-07 04:55:00,
2013-08-06 22:00:00,57.5,54.3,30.04,SSW,211,3.0,10.0,89,0.00,,,0.00,Wunderground v.1.15,2013-08-07 05:00:00,
2013-08-06 22:10:00,57.4,54.5,30.04,SW,214,2.0,10.0,90,0.00,,,0.00,Wunderground v.1.15,2013-08-07 05:10:00,
2013-08-06 22:15:00,57.3,54.4,30.04,SW,216,2.0,10.0,90,0.00,,,0.00,Wunderground v.1.15,2013-08-07 05:15:00,
2013-08-06 22:20:00,57.3,54.4,30.04,SW,218,2.0,10.0,90,0.00,,,0.00,Wunderground v.1.15,2013-08-07 05:20:00,
2013-08-06 22:25:00,57.3,54.1,30.04,SW,220,3.0,10.0,89,0.00,,,0.00,Wunderground v.1.15,2013-08-07 05:25:00,
2013-08-06 22:30:00,57.4,54.2,30.04,SW,220,3.0,3.0,89,0.00,,,0.00,Wunderground v.1.15,2013-08-07 05:30:00,
2013-08-06 22:35:00,57.4,54.5,30.04,SW,221,2.0,10.0,90,0.00,,,0.00,Wunderground v.1.15,2013-08-07 05:35:00,
2013-08-06 22:40:00,57.3,54.4,30.05,SW,221,2.0,10.0,90,0.00,,,0.00,Wunderground v.1.15,2013-08-07 05:40:00,
2013-08-06 22:50:00,57.1,54.5,30.05,SW,221,3.0,3.0,91,0.00,,,0.00,Wunderground v.1.15,2013-08-07 05:50:00,
2013-08-06 22:55:00,57.1,54.8,30.05,SW,215,3.0,4.0,92,0.00,,,0.00,Wunderground v.1.15,2013-08-07 05:55:00,
2013-08-06 23:00:00,57.1,54.8,30.05,SW,217,3.0,10.0,92,0.00,,,0.00,Wunderground v.1.15,2013-08-07 06:00:00,
2013-08-06 23:05:00,57.0,54.7,30.05,SW,217,3.0,10.0,92,0.00,,,0.00,Wunderground v.1.15,2013-08-07 06:05:00,
2013-08-06 23:10:00,56.9,54.9,30.05,SW,217,3.0,10.0,93,0.00,,,0.00,Wunderground v.1.15,2013-08-07 06:10:00,
2013-08-06 23:15:00,56.7,54.7,30.05,SW,217,3.0,10.0,93,0.00,,,0.00,Wunderground v.1.15,2013-08-07 06:15:00,
2013-08-06 23:25:00,56.6,54.9,30.05,SW,218,3.0,10.0,94,0.00,,,0.00,Wunderground v.1.15,2013-08-07 06:25:00,
2013-08-06 23:30:00,56.5,54.8,30.05,SW,218,3.0,3.0,94,0.00,,,0.00,Wunderground v.1.15,2013-08-07 06:30:00,
2013-08-06 23:35:00,56.4,54.7,30.05,SW,219,3.0,4.0,94,0.00,,,0.00,Wunderground v.1.15,2013-08-07 06:35:00,
2013-08-06 23:45:00,56.3,54.6,30.05,SW,215,4.0,10.0,94,0.00,,,0.00,Wunderground v.1.15,2013-08-07 06:45:00,
2013-08-06 23:50:00,56.2,54.5,30.05,SW,215,3.0,3.0,94,0.00,,,0.00,Wunderground v.1.15,2013-08-07 06:50:00,
2013-08-06 23:55:00,56.1,54.4,30.05,SW,215,2.0,10.0,94,0.00,,,0.00,Wunderground v.1.15,2013-08-07 06:55:00,